createdAt,value
2022-11-08T00:01:17.438Z,40.47
2022-11-08T00:03:47.878Z,41.95
2022-11-08T00:09:07.839Z,40.60
2022-11-08T00:11:48.041Z,44.40
2022-11-08T00:14:18.438Z,41.80
2022-11-08T00:16:48.784Z,39.72
2022-11-08T00:19:19.274Z,39.75
2022-11-08T00:24:19.646Z,39.53
2022-11-08T00:29:20.117Z,37.95
2022-11-08T00:31:50.577Z,35.88
2022-11-08T00:34:21.135Z,38.28
2022-11-08T00:36:51.578Z,39.17
2022-11-08T00:39:22.754Z,38.35
2022-11-08T00:41:53.193Z,41.85
2022-11-08T00:44:24.803Z,38.50
2022-11-08T00:46:55.637Z,38.30
2022-11-08T00:49:26.270Z,38.97
2022-11-08T00:51:56.672Z,37.65
2022-11-08T00:54:27.276Z,38.90
2022-11-08T00:56:57.680Z,37.80
2022-11-08T00:59:28.128Z,38.05
2022-11-08T01:04:28.596Z,39.08
2022-11-08T01:09:28.987Z,39.83
2022-11-08T01:11:59.340Z,38.50
2022-11-08T01:14:29.807Z,35.88
2022-11-08T01:19:30.097Z,41.30
2022-11-08T01:22:00.501Z,38.63
2022-11-08T01:24:31.052Z,43.45
2022-11-08T01:29:31.266Z,43.87
2022-11-08T01:32:01.690Z,45.50
2022-11-08T01:34:32.072Z,43.38
2022-11-08T01:37:02.417Z,43.05
2022-11-08T01:39:35.055Z,45.33
2022-11-08T01:42:05.407Z,44.40
2022-11-08T01:44:35.970Z,47.55
2022-11-08T01:47:06.269Z,46.70
2022-11-08T01:49:48.722Z,45.42
2022-11-08T01:52:31.883Z,48.33
2022-11-08T01:55:25.734Z,49.25
2022-11-08T01:58:08.226Z,47.80
2022-11-08T02:00:42.062Z,47.67
2022-11-08T02:03:16.983Z,44.20
2022-11-08T02:05:48.341Z,47.03
2022-11-08T02:08:29.400Z,47.40
2022-11-08T02:11:00.486Z,45.05
2022-11-08T02:13:33.212Z,46.97
2022-11-08T02:16:04.038Z,44.58
2022-11-08T02:18:35.717Z,48.30
2022-11-08T02:21:25.206Z,47.55
2022-11-08T02:24:02.156Z,50.83
2022-11-08T02:26:35.981Z,47.90
2022-11-08T02:29:27.032Z,49.22
2022-11-08T02:31:58.430Z,49.08
2022-11-08T02:34:43.855Z,65.60
2022-11-08T02:37:16.986Z,59.25
2022-11-08T02:39:48.168Z,61.22
2022-11-08T02:42:21.109Z,52.30
2022-11-08T02:44:51.524Z,50.42
2022-11-08T02:47:21.437Z,46.22
2022-11-08T02:49:51.917Z,49.42
2022-11-08T02:52:21.788Z,50.45
2022-11-08T02:54:51.748Z,51.20
2022-11-08T02:57:21.611Z,54.13
2022-11-08T02:59:51.515Z,56.35
2022-11-08T03:02:21.576Z,54.17
2022-11-08T03:04:51.527Z,53.10
2022-11-08T03:07:24.870Z,53.20
2022-11-08T03:09:55.262Z,58.92
2022-11-08T03:12:25.061Z,55.60
2022-11-08T03:14:55.056Z,54.45
2022-11-08T03:17:24.985Z,59.20
2022-11-08T03:19:55.494Z,56.53
2022-11-08T03:22:25.617Z,55.20
2022-11-08T03:24:55.529Z,59.05
2022-11-08T03:27:25.971Z,57.97
2022-11-08T03:32:28.254Z,57.72
2022-11-08T03:34:58.368Z,58.10
2022-11-08T03:37:28.517Z,55.83
2022-11-08T03:39:58.518Z,54.85
2022-11-08T03:42:28.538Z,57.95
2022-11-08T03:44:58.466Z,61.05
2022-11-08T03:47:28.405Z,63.03
2022-11-08T03:49:58.420Z,62.28
2022-11-08T03:52:28.289Z,62.55
2022-11-08T03:54:58.550Z,62.70
2022-11-08T03:57:28.756Z,62.70
2022-11-08T03:59:58.549Z,66.95
2022-11-08T04:02:28.456Z,63.80
2022-11-08T04:04:58.602Z,68.63
2022-11-08T04:07:30.254Z,63.20
2022-11-08T04:10:00.324Z,64.05
2022-11-08T04:12:41.849Z,67.68
2022-11-08T04:15:16.747Z,63.28
2022-11-08T04:18:02.197Z,68.10
2022-11-08T04:20:42.943Z,64.57
2022-11-08T04:23:12.832Z,56.95
2022-11-08T04:25:43.021Z,61.08
2022-11-08T04:30:42.868Z,65.53
2022-11-08T04:33:12.875Z,59.13
2022-11-08T04:38:12.293Z,64.20
2022-11-08T04:40:42.281Z,63.78
2022-11-08T04:43:12.324Z,58.05
2022-11-08T04:45:42.353Z,63.90
2022-11-08T04:48:12.333Z,59.92
2022-11-08T04:50:42.443Z,67.90
2022-11-08T04:55:41.628Z,52.35
2022-11-08T04:58:11.643Z,51.22
2022-11-08T05:00:41.467Z,60.63
2022-11-08T05:03:11.232Z,61.80
2022-11-08T05:05:41.212Z,61.88
2022-11-08T05:08:10.989Z,63.03
2022-11-08T05:10:40.803Z,56.45
2022-11-08T05:13:10.829Z,51.85
2022-11-08T05:15:40.714Z,54.55
2022-11-08T05:18:11.385Z,53.63
2022-11-08T05:20:56.234Z,54.75
2022-11-08T05:23:26.188Z,55.72
2022-11-08T05:25:57.882Z,52.08
2022-11-08T05:28:27.769Z,51.97
2022-11-08T05:30:59.410Z,50.60
2022-11-08T05:33:29.684Z,43.17
2022-11-08T05:36:05.879Z,49.05
2022-11-08T05:38:36.426Z,48.50
2022-11-08T05:41:08.603Z,43.67
2022-11-08T05:43:39.280Z,43.33
2022-11-08T05:46:10.068Z,48.05
2022-11-08T05:48:40.079Z,53.80
2022-11-08T05:53:39.385Z,50.77
2022-11-08T05:58:39.521Z,49.67
2022-11-08T06:01:14.371Z,53.28
2022-11-08T06:03:44.915Z,50.53
2022-11-08T06:06:18.857Z,45.90
2022-11-08T06:08:50.757Z,43.60
2022-11-08T06:11:24.402Z,44.95
2022-11-08T06:13:55.660Z,51.58
2022-11-08T06:16:27.271Z,51.42
2022-11-08T06:18:57.205Z,53.65
2022-11-08T06:21:29.015Z,52.20
2022-11-08T06:23:58.838Z,52.30
2022-11-08T06:26:28.959Z,47.10
2022-11-08T06:31:28.373Z,45.33
2022-11-08T06:33:58.251Z,37.88
2022-11-08T06:36:28.066Z,32.30
2022-11-08T06:38:58.463Z,34.47
2022-11-08T06:41:31.880Z,33.35
2022-11-08T06:44:02.318Z,36.53
2022-11-08T06:46:32.810Z,35.65
2022-11-08T06:49:03.012Z,31.95
2022-11-08T06:51:32.918Z,33.00
2022-11-08T06:54:07.845Z,33.72
2022-11-08T06:56:38.537Z,33.53
2022-11-08T06:59:08.403Z,32.42
2022-11-08T07:01:41.968Z,30.83
2022-11-08T07:04:15.377Z,29.35
2022-11-08T07:06:45.312Z,27.98
2022-11-08T07:09:15.904Z,28.58
2022-11-08T07:11:45.843Z,28.05
2022-11-08T07:14:16.769Z,27.77
2022-11-08T07:16:46.540Z,29.15
2022-11-08T07:19:16.574Z,29.70
2022-11-08T07:24:15.869Z,27.92
2022-11-08T07:29:16.268Z,26.83
2022-11-08T07:31:46.239Z,25.00
2022-11-08T07:34:16.500Z,26.20
2022-11-08T07:36:46.573Z,26.10
2022-11-08T07:39:16.488Z,25.83
2022-11-08T07:41:46.460Z,25.27
2022-11-08T07:46:45.838Z,25.15
2022-11-08T07:51:45.401Z,21.55
2022-11-08T07:56:45.079Z,27.92
2022-11-08T07:59:14.919Z,24.23
2022-11-08T08:01:44.839Z,23.33
2022-11-08T08:04:15.126Z,22.52
2022-11-08T08:06:45.055Z,22.83
2022-11-08T08:09:15.346Z,20.27
2022-11-08T08:11:45.277Z,20.98
2022-11-08T08:14:16.205Z,19.95
2022-11-08T08:16:46.209Z,20.92
2022-11-08T08:21:45.776Z,20.70
2022-11-08T08:24:15.884Z,23.38
2022-11-08T08:26:45.919Z,20.77
2022-11-08T08:31:46.016Z,18.90
2022-11-08T08:34:20.098Z,19.08
2022-11-08T08:36:51.026Z,16.83
2022-11-08T08:39:21.389Z,17.75
2022-11-08T08:41:51.813Z,18.88
2022-11-08T08:44:22.422Z,21.33
2022-11-08T08:46:52.859Z,17.10
2022-11-08T08:49:23.874Z,17.65
2022-11-08T08:51:54.290Z,18.95
2022-11-08T08:54:28.372Z,19.80
2022-11-08T08:57:00.029Z,18.23
2022-11-08T09:02:23.128Z,23.17
2022-11-08T09:04:53.647Z,20.20
2022-11-08T09:07:24.143Z,19.27
2022-11-08T09:09:54.860Z,18.23
2022-11-08T09:12:25.342Z,17.45
2022-11-08T09:14:56.010Z,18.85
2022-11-08T09:17:27.459Z,19.50
2022-11-08T09:19:58.458Z,20.40
2022-11-08T09:22:29.002Z,19.80
2022-11-08T09:24:59.516Z,19.15
2022-11-08T09:27:32.625Z,23.45
2022-11-08T09:30:03.389Z,20.20
2022-11-08T09:32:59.202Z,22.00
2022-11-08T09:35:24.942Z,19.15
2022-11-08T09:37:57.320Z,21.05
2022-11-08T09:40:53.050Z,20.10
2022-11-08T09:43:44.234Z,21.55
2022-11-08T09:46:19.366Z,23.45
2022-11-08T09:48:49.961Z,22.52
2022-11-08T09:51:23.533Z,20.45
2022-11-08T09:54:00.919Z,24.10
2022-11-08T09:56:35.038Z,24.10
2022-11-08T09:59:25.223Z,22.42
2022-11-08T10:01:55.777Z,25.33
2022-11-08T10:04:31.176Z,25.08
2022-11-08T10:07:25.730Z,24.17
2022-11-08T10:10:29.754Z,23.27
2022-11-08T10:13:10.996Z,28.80
2022-11-08T10:16:20.269Z,22.95
2022-11-08T10:19:23.125Z,23.50
2022-11-08T10:22:13.590Z,23.38
2022-11-08T10:25:03.416Z,23.10
2022-11-08T10:27:42.925Z,24.25
2022-11-08T10:30:25.632Z,20.88
2022-11-08T10:33:00.053Z,22.23
2022-11-08T10:35:59.068Z,22.52
2022-11-08T10:39:00.575Z,22.88
2022-11-08T10:41:55.619Z,23.40
2022-11-08T10:44:27.942Z,21.42
2022-11-08T10:47:05.569Z,23.27
2022-11-08T10:49:46.632Z,23.75
2022-11-08T10:52:33.744Z,22.98
2022-11-08T10:55:04.455Z,27.05
2022-11-08T10:57:47.119Z,27.30
2022-11-08T11:00:30.774Z,26.95
2022-11-08T11:03:05.010Z,30.77
2022-11-08T11:05:40.479Z,38.35
2022-11-08T11:08:21.061Z,42.78
2022-11-08T11:10:53.102Z,45.75
2022-11-08T11:13:31.354Z,52.33
2022-11-08T11:16:06.030Z,40.45
2022-11-08T11:18:48.616Z,38.08
2022-11-08T11:21:24.503Z,34.65
2022-11-08T11:24:00.163Z,35.40
2022-11-08T11:26:34.905Z,36.28
2022-11-08T11:29:33.268Z,40.03
2022-11-08T11:32:26.321Z,41.17
2022-11-08T11:35:01.443Z,39.72
2022-11-08T11:37:44.550Z,37.03
2022-11-08T11:40:36.571Z,35.88
2022-11-08T11:43:30.122Z,35.03
2022-11-08T11:46:24.541Z,31.83
2022-11-08T11:49:05.784Z,30.83
2022-11-08T11:51:36.305Z,30.17
2022-11-08T11:54:10.243Z,30.13
2022-11-08T11:56:58.691Z,33.38
2022-11-08T11:59:52.573Z,34.92
2022-11-08T12:02:53.545Z,37.20
2022-11-08T12:05:42.790Z,36.00
2022-11-08T12:08:30.453Z,38.00
2022-11-08T12:11:33.484Z,39.97
2022-11-08T12:14:30.808Z,39.53
2022-11-08T12:17:29.454Z,40.97
2022-11-08T12:20:27.077Z,40.58
2022-11-08T12:23:13.774Z,41.38
2022-11-08T12:26:05.088Z,41.97
2022-11-08T12:28:54.453Z,44.65
2022-11-08T12:31:36.886Z,46.17
2022-11-08T12:34:24.791Z,44.10
2022-11-08T12:37:10.628Z,41.75
2022-11-08T12:40:03.345Z,54.70
2022-11-08T12:43:05.538Z,49.00
2022-11-08T12:46:06.478Z,47.97
2022-11-08T12:49:08.454Z,48.20
2022-11-08T12:52:11.219Z,47.63
2022-11-08T12:54:48.746Z,44.30
2022-11-08T12:57:24.286Z,42.85
2022-11-08T13:00:04.915Z,42.28
2022-11-08T13:02:39.551Z,42.75
2022-11-08T13:05:27.189Z,45.22
2022-11-08T13:08:18.627Z,43.55
2022-11-08T13:11:11.103Z,43.20
2022-11-08T13:14:04.739Z,44.75
2022-11-08T13:16:42.110Z,38.67
2022-11-08T13:19:32.381Z,42.47
2022-11-08T13:24:44.385Z,44.65
2022-11-08T13:27:45.147Z,46.67
2022-11-08T13:30:38.307Z,46.92
2022-11-08T13:33:28.809Z,49.28
2022-11-08T13:36:26.164Z,50.30
2022-11-08T13:39:15.129Z,54.50
2022-11-08T13:42:09.217Z,56.25
2022-11-08T13:45:09.214Z,57.15
2022-11-08T13:47:55.533Z,59.30
2022-11-08T13:50:49.640Z,62.00
2022-11-08T13:53:56.543Z,63.42
2022-11-08T13:56:49.277Z,62.45
2022-11-08T13:59:58.590Z,65.60
2022-11-08T14:02:36.044Z,69.35
2022-11-08T14:05:24.313Z,66.28
2022-11-08T14:08:22.486Z,71.63
2022-11-08T14:11:23.903Z,68.72
2022-11-08T14:14:18.584Z,69.43
2022-11-08T14:17:12.535Z,66.57
2022-11-08T14:19:46.348Z,67.05
2022-11-08T14:22:28.472Z,63.65
2022-11-08T14:25:10.935Z,65.20
2022-11-08T14:27:43.224Z,66.88
2022-11-08T14:30:19.645Z,67.55
2022-11-08T14:32:50.702Z,66.03
2022-11-08T14:35:29.518Z,67.03
2022-11-08T14:38:00.313Z,70.82
2022-11-08T14:40:32.579Z,67.90
2022-11-08T14:43:03.058Z,65.15
2022-11-08T14:45:33.390Z,69.45
2022-11-08T14:50:37.559Z,67.93
2022-11-08T14:53:29.255Z,68.35
2022-11-08T14:56:27.039Z,68.45
2022-11-08T14:58:58.467Z,67.60
2022-11-08T15:01:30.166Z,63.05
2022-11-08T15:04:06.431Z,62.47
2022-11-08T15:06:42.632Z,57.28
2022-11-08T15:09:25.117Z,54.78
2022-11-08T15:12:00.083Z,52.97
2022-11-08T15:14:34.584Z,50.55
2022-11-08T15:17:05.290Z,51.63
2022-11-08T15:19:44.679Z,49.40
2022-11-08T15:22:28.445Z,57.17
2022-11-08T15:25:21.543Z,50.40
2022-11-08T15:27:57.544Z,50.95
2022-11-08T15:30:43.735Z,53.67
2022-11-08T15:33:29.612Z,50.60
2022-11-08T15:36:02.630Z,54.10
2022-11-08T15:38:41.320Z,52.05
2022-11-08T15:41:33.701Z,49.60
2022-11-08T15:44:19.038Z,48.90
2022-11-08T15:46:49.451Z,49.55
2022-11-08T15:49:27.131Z,48.80
2022-11-08T15:52:00.921Z,46.17
2022-11-08T15:54:31.273Z,48.42
2022-11-08T15:59:33.168Z,48.70
2022-11-08T16:02:05.069Z,51.58
2022-11-08T16:04:35.506Z,45.08
2022-11-08T16:09:35.680Z,46.40
2022-11-08T16:12:06.825Z,48.42
2022-11-08T16:14:37.134Z,47.58
2022-11-08T16:19:37.113Z,47.83
2022-11-08T16:22:09.460Z,44.05
2022-11-08T16:24:39.800Z,43.53
2022-11-08T16:29:39.898Z,43.83
2022-11-08T16:34:41.777Z,41.75
2022-11-08T16:39:42.945Z,42.40
2022-11-08T16:42:15.206Z,39.40
2022-11-08T16:44:47.366Z,39.55
2022-11-08T16:47:21.340Z,43.33
2022-11-08T16:49:51.800Z,42.90
2022-11-08T16:52:22.138Z,44.50
2022-11-08T16:57:34.207Z,43.23
2022-11-08T17:00:06.652Z,42.35
2022-11-08T17:02:38.565Z,46.97
2022-11-08T17:05:09.152Z,43.85
2022-11-08T17:07:39.648Z,44.28
2022-11-08T17:10:10.543Z,44.17
2022-11-08T17:12:40.952Z,46.42
2022-11-08T17:17:52.389Z,41.72
2022-11-08T17:20:23.685Z,46.08
2022-11-08T17:22:54.242Z,43.00
2022-11-08T17:25:26.634Z,42.95
2022-11-08T17:27:56.975Z,41.10
2022-11-08T17:32:57.618Z,41.15
2022-11-08T17:35:28.045Z,43.58
2022-11-08T17:37:58.402Z,42.28
2022-11-08T17:45:29.162Z,44.72
2022-11-08T17:50:29.316Z,45.75
2022-11-08T17:52:59.778Z,45.88
2022-11-08T17:57:59.840Z,42.58
2022-11-08T18:00:30.417Z,44.47
2022-11-08T18:03:00.819Z,46.17
2022-11-08T18:08:01.123Z,43.58
2022-11-08T18:13:01.102Z,42.93
2022-11-08T18:15:31.532Z,44.70
2022-11-08T18:23:01.623Z,43.00
2022-11-08T18:28:01.689Z,41.63
2022-11-08T18:33:01.872Z,41.88
2022-11-08T18:35:32.389Z,40.38
2022-11-08T18:38:02.718Z,37.17
2022-11-08T18:40:34.040Z,39.25
2022-11-08T18:43:04.410Z,40.33
2022-11-08T18:48:11.066Z,40.20
2022-11-08T18:50:41.838Z,37.75
2022-11-08T18:53:12.335Z,38.40
2022-11-08T18:55:42.588Z,37.15
2022-11-08T18:58:12.838Z,39.88
2022-11-08T19:00:43.241Z,40.65
2022-11-08T19:05:49.292Z,38.40
2022-11-08T19:08:23.352Z,36.75
2022-11-08T19:10:56.213Z,40.55
2022-11-08T19:13:28.523Z,38.42
2022-11-08T19:16:01.883Z,40.50
2022-11-08T19:18:33.669Z,37.90
2022-11-08T19:21:09.406Z,37.83
2022-11-08T19:23:41.034Z,40.38
2022-11-08T19:26:17.176Z,39.78
2022-11-08T19:28:48.665Z,39.45
2022-11-08T19:31:21.248Z,40.90
2022-11-08T19:33:53.983Z,46.08
2022-11-08T19:36:26.445Z,46.83
2022-11-08T19:38:58.723Z,48.33
2022-11-08T19:41:31.842Z,48.97
2022-11-08T19:44:02.532Z,42.28
2022-11-08T19:46:34.528Z,42.38
2022-11-08T19:49:07.256Z,40.38
2022-11-08T19:51:38.413Z,41.15
2022-11-08T19:54:10.978Z,38.08
2022-11-08T19:57:03.719Z,39.70
2022-11-08T19:59:31.801Z,34.83
2022-11-08T20:04:32.322Z,38.00
2022-11-08T20:07:03.021Z,36.60
2022-11-08T20:09:37.569Z,38.88
2022-11-08T20:12:08.102Z,38.58
2022-11-08T20:17:08.273Z,39.72
2022-11-08T20:22:08.533Z,38.53
2022-11-08T20:27:08.702Z,40.25
2022-11-08T20:32:09.215Z,38.38
2022-11-08T20:34:39.649Z,42.67
2022-11-08T20:39:39.926Z,40.35
2022-11-08T20:44:40.291Z,58.97
2022-11-08T20:49:40.545Z,43.30
2022-11-08T20:52:10.927Z,56.28
2022-11-08T20:57:14.493Z,106.32
2022-11-08T21:02:15.589Z,87.47
2022-11-08T21:04:46.043Z,57.47
2022-11-08T21:10:35.753Z,52.60
2022-11-08T21:15:27.277Z,46.33
2022-11-08T21:17:57.746Z,44.17
2022-11-08T21:20:28.895Z,46.78
2022-11-08T21:22:59.284Z,42.28
2022-11-08T21:25:29.668Z,43.55
2022-11-08T21:28:01.213Z,39.45
2022-11-08T21:30:31.568Z,41.85
2022-11-08T21:35:31.873Z,42.70
2022-11-08T21:40:33.939Z,39.15
2022-11-08T21:43:04.508Z,40.75
2022-11-08T21:48:05.697Z,40.55
2022-11-08T21:50:39.210Z,42.63
2022-11-08T21:53:12.593Z,43.35
2022-11-08T21:55:43.020Z,44.08
2022-11-08T21:58:13.449Z,43.55
2022-11-08T22:03:14.783Z,44.87
2022-11-08T22:05:46.278Z,41.97
2022-11-08T22:08:17.007Z,43.10
2022-11-08T22:10:48.789Z,45.35
2022-11-08T22:13:19.361Z,40.50
2022-11-08T22:15:49.706Z,43.78
2022-11-08T22:18:36.334Z,40.70
2022-11-08T22:21:28.998Z,42.65
2022-11-08T22:23:59.407Z,43.10
2022-11-08T22:26:30.005Z,46.92
2022-11-08T22:29:00.439Z,41.22
2022-11-08T22:31:30.830Z,42.45
2022-11-08T22:34:01.721Z,39.65
2022-11-08T22:36:32.419Z,37.13
2022-11-08T22:39:02.991Z,42.45
2022-11-08T22:41:33.849Z,38.80
2022-11-08T22:44:06.279Z,38.60
2022-11-08T22:46:40.993Z,42.55
2022-11-08T22:49:12.237Z,37.83
2022-11-08T22:51:43.594Z,41.25
2022-11-08T22:54:14.035Z,41.00
2022-11-08T22:56:44.687Z,41.05
2022-11-08T22:59:15.578Z,39.40
2022-11-08T23:01:45.953Z,38.95
2022-11-08T23:04:16.312Z,37.75
2022-11-08T23:06:46.775Z,39.15
2022-11-08T23:12:01.955Z,40.70
2022-11-08T23:14:42.005Z,39.08
2022-11-08T23:17:12.592Z,39.60
2022-11-08T23:22:42.554Z,41.00
2022-11-08T23:25:12.926Z,41.40
2022-11-08T23:27:52.873Z,45.53
2022-11-08T23:30:33.025Z,47.10
2022-11-08T23:33:03.901Z,51.45
2022-11-08T23:35:34.405Z,45.17
2022-11-08T23:40:53.643Z,48.25
2022-11-08T23:43:34.064Z,45.92
2022-11-08T23:46:14.449Z,44.75
2022-11-08T23:48:44.822Z,46.85
2022-11-08T23:51:15.119Z,44.53
2022-11-08T23:53:46.599Z,44.03
2022-11-08T23:56:25.547Z,44.00
2022-11-08T23:58:58.128Z,44.92
